< < Back
Terminal Aerodrome Forecast


Current Version              Previous Versions:   1  2  3  4  5  6  7  8  9  

Terminal Aerodrome Forecast

058
FTUS44 KOHX 270520
TAFCSV
TAF
KCSV 270520Z 2706/2806 02004KT P6SM SKC
     FM271200 05008KT P6SM SCT040=

Latest METAR

791
SAUS70 KWBC 280656
MTRCSV
METAR KCSV 280653Z AUTO 06003KT 10SM CLR 16/13 A3014 RMK AO2 SLP188
T01560133


USA.gov is the U.S. government's official web portal to all federal, state and local government web resources and services.